sensor_id;sensor_type;location;lat;lon;timestamp;pressure;altitude;pressure_sealevel;temperature;humidity
75089;BME280;63673;49.928;8.150;2022-09-20T00:00:43;996.24;;;9.35;100
75089;BME280;63673;49.928;8.150;2022-09-20T00:01:44;996.25;;;9.33;100
75089;BME280;63673;49.928;8.150;2022-09-20T00:02:46;996.27;;;9.32;100
75089;BME280;63673;49.928;8.150;2022-09-20T00:03:49;996.24;;;9.3;100
75089;BME280;63673;49.928;8.150;2022-09-20T00:04:50;996.29;;;9.27;100
75089;BME280;63673;49.928;8.150;2022-09-20T00:05:51;996.27;;;9.25;100
75089;BME280;63673;49.928;8.150;2022-09-20T00:06:53;996.23;;;9.23;100
75089;BME280;63673;49.928;8.150;2022-09-20T00:07:55;996.27;;;9.19;100
75089;BME280;63673;49.928;8.150;2022-09-20T00:08:57;996.2;;;9.18;100
75089;BME280;63673;49.928;8.150;2022-09-20T00:09:58;996.24;;;9.16;100
75089;BME280;63673;49.928;8.150;2022-09-20T00:11:00;996.24;;;9.14;100
75089;BME280;63673;49.928;8.150;2022-09-20T00:12:02;996.24;;;9.13;100
75089;BME280;63673;49.928;8.150;2022-09-20T00:13:04;996.2;;;9.11;100
75089;BME280;63673;49.928;8.150;2022-09-20T00:14:06;996.25;;;9.1;100
75089;BME280;63673;49.928;8.150;2022-09-20T00:15:07;996.22;;;9.08;100
75089;BME280;63673;49.928;8.150;2022-09-20T00:16:10;996.24;;;9.08;100
75089;BME280;63673;49.928;8.150;2022-09-20T00:17:10;996.23;;;9.06;100
75089;BME280;63673;49.928;8.150;2022-09-20T00:18:12;996.23;;;9.05;100
75089;BME280;63673;49.928;8.150;2022-09-20T00:19:16;996.23;;;9.05;100
75089;BME280;63673;49.928;8.150;2022-09-20T00:20:16;996.19;;;9.05;100
75089;BME280;63673;49.928;8.150;2022-09-20T00:21:18;996.2;;;9.04;100
75089;BME280;63673;49.928;8.150;2022-09-20T00:22:19;996.16;;;9.03;100
75089;BME280;63673;49.928;8.150;2022-09-20T00:23:21;996.19;;;9.02;100
75089;BME280;63673;49.928;8.150;2022-09-20T00:24:23;996.17;;;9.01;100
75089;BME280;63673;49.928;8.150;2022-09-20T00:25:24;996.17;;;9;100
75089;BME280;63673;49.928;8.150;2022-09-20T00:26:26;996.15;;;9;100
75089;BME280;63673;49.928;8.150;2022-09-20T00:27:28;996.17;;;8.98;100
75089;BME280;63673;49.928;8.150;2022-09-20T00:28:30;996.19;;;8.97;100
75089;BME280;63673;49.928;8.150;2022-09-20T00:29:31;996.11;;;8.96;100
75089;BME280;63673;49.928;8.150;2022-09-20T00:30:33;996.21;;;8.94;100
75089;BME280;63673;49.928;8.150;2022-09-20T00:31:35;996.17;;;8.92;100
75089;BME280;63673;49.928;8.150;2022-09-20T00:32:37;996.17;;;8.91;100
75089;BME280;63673;49.928;8.150;2022-09-20T00:33:38;996.19;;;8.89;100
75089;BME280;63673;49.928;8.150;2022-09-20T00:34:40;996.13;;;8.88;100
75089;BME280;63673;49.928;8.150;2022-09-20T00:35:42;996.16;;;8.87;100
75089;BME280;63673;49.928;8.150;2022-09-20T00:36:44;996.16;;;8.86;100
75089;BME280;63673;49.928;8.150;2022-09-20T00:37:45;996.16;;;8.85;100
75089;BME280;63673;49.928;8.150;2022-09-20T00:38:47;996.11;;;8.85;100
75089;BME280;63673;49.928;8.150;2022-09-20T00:39:49;996.12;;;8.84;100
75089;BME280;63673;49.928;8.150;2022-09-20T00:40:50;996.13;;;8.82;100
75089;BME280;63673;49.928;8.150;2022-09-20T00:41:52;996.1;;;8.82;100
75089;BME280;63673;49.928;8.150;2022-09-20T00:42:54;996.13;;;8.81;100
75089;BME280;63673;49.928;8.150;2022-09-20T00:43:56;996.16;;;8.81;100
75089;BME280;63673;49.928;8.150;2022-09-20T00:44:58;996.11;;;8.79;100
75089;BME280;63673;49.928;8.150;2022-09-20T00:45:59;996.06;;;8.79;100
75089;BME280;63673;49.928;8.150;2022-09-20T00:47:01;996.09;;;8.77;100
75089;BME280;63673;49.928;8.150;2022-09-20T00:48:04;996.06;;;8.76;100
75089;BME280;63673;49.928;8.150;2022-09-20T00:49:05;996.13;;;8.74;100
75089;BME280;63673;49.928;8.150;2022-09-20T00:50:11;996.09;;;8.73;100
75089;BME280;63673;49.928;8.150;2022-09-20T00:51:08;996.14;;;8.71;100
75089;BME280;63673;49.928;8.150;2022-09-20T00:52:09;996.17;;;8.69;100
75089;BME280;63673;49.928;8.150;2022-09-20T00:53:12;996.16;;;8.67;100
75089;BME280;63673;49.928;8.150;2022-09-20T00:54:13;996.15;;;8.67;100
75089;BME280;63673;49.928;8.150;2022-09-20T00:55:15;996.15;;;8.66;100
75089;BME280;63673;49.928;8.150;2022-09-20T00:56:18;996.17;;;8.65;100
75089;BME280;63673;49.928;8.150;2022-09-20T00:57:18;996.22;;;8.65;100
75089;BME280;63673;49.928;8.150;2022-09-20T00:58:20;996.19;;;8.65;100
75089;BME280;63673;49.928;8.150;2022-09-20T00:59:22;996.23;;;8.64;100
75089;BME280;63673;49.928;8.150;2022-09-20T01:00:23;996.17;;;8.64;100
75089;BME280;63673;49.928;8.150;2022-09-20T01:01:25;996.18;;;8.63;100
75089;BME280;63673;49.928;8.150;2022-09-20T01:02:27;996.22;;;8.62;100
75089;BME280;63673;49.928;8.150;2022-09-20T01:03:29;996.21;;;8.62;100
75089;BME280;63673;49.928;8.150;2022-09-20T01:04:30;996.22;;;8.61;100
75089;BME280;63673;49.928;8.150;2022-09-20T01:05:32;996.23;;;8.6;100
75089;BME280;63673;49.928;8.150;2022-09-20T01:06:34;996.22;;;8.6;100
75089;BME280;63673;49.928;8.150;2022-09-20T01:07:35;996.24;;;8.6;100
75089;BME280;63673;49.928;8.150;2022-09-20T01:08:37;996.22;;;8.6;100
75089;BME280;63673;49.928;8.150;2022-09-20T01:09:39;996.24;;;8.6;100
75089;BME280;63673;49.928;8.150;2022-09-20T01:10:41;996.24;;;8.6;100
75089;BME280;63673;49.928;8.150;2022-09-20T01:11:42;996.26;;;8.59;100
75089;BME280;63673;49.928;8.150;2022-09-20T01:12:44;996.25;;;8.6;100
75089;BME280;63673;49.928;8.150;2022-09-20T01:13:46;996.29;;;8.59;100
75089;BME280;63673;49.928;8.150;2022-09-20T01:14:48;996.3;;;8.58;100
75089;BME280;63673;49.928;8.150;2022-09-20T01:15:49;996.29;;;8.57;100
75089;BME280;63673;49.928;8.150;2022-09-20T01:16:51;996.25;;;8.57;100
75089;BME280;63673;49.928;8.150;2022-09-20T01:17:53;996.31;;;8.57;100
75089;BME280;63673;49.928;8.150;2022-09-20T01:18:55;996.31;;;8.56;100
75089;BME280;63673;49.928;8.150;2022-09-20T01:20:01;996.28;;;8.56;100
75089;BME280;63673;49.928;8.150;2022-09-20T01:20:58;996.28;;;8.57;100
75089;BME280;63673;49.928;8.150;2022-09-20T01:22:00;996.28;;;8.57;100
75089;BME280;63673;49.928;8.150;2022-09-20T01:23:09;996.24;;;8.57;100
75089;BME280;63673;49.928;8.150;2022-09-20T01:24:04;996.3;;;8.57;100
75089;BME280;63673;49.928;8.150;2022-09-20T01:25:06;996.29;;;8.56;100
75089;BME280;63673;49.928;8.150;2022-09-20T01:26:26;996.34;;;8.57;100
75089;BME280;63673;49.928;8.150;2022-09-20T01:27:12;996.33;;;8.56;100
75089;BME280;63673;49.928;8.150;2022-09-20T01:28:10;996.29;;;8.55;100
75089;BME280;63673;49.928;8.150;2022-09-20T01:29:16;996.29;;;8.55;100
75089;BME280;63673;49.928;8.150;2022-09-20T01:30:15;996.28;;;8.53;100
75089;BME280;63673;49.928;8.150;2022-09-20T01:31:16;996.27;;;8.52;100
75089;BME280;63673;49.928;8.150;2022-09-20T01:32:18;996.26;;;8.51;100
75089;BME280;63673;49.928;8.150;2022-09-20T01:33:21;996.27;;;8.5;100
75089;BME280;63673;49.928;8.150;2022-09-20T01:34:22;996.26;;;8.49;100
75089;BME280;63673;49.928;8.150;2022-09-20T01:35:23;996.26;;;8.48;100
75089;BME280;63673;49.928;8.150;2022-09-20T01:36:25;996.28;;;8.48;100
75089;BME280;63673;49.928;8.150;2022-09-20T01:37:26;996.29;;;8.48;100
75089;BME280;63673;49.928;8.150;2022-09-20T01:38:28;996.28;;;8.48;100
75089;BME280;63673;49.928;8.150;2022-09-20T01:39:32;996.28;;;8.46;100
75089;BME280;63673;49.928;8.150;2022-09-20T01:40:32;996.34;;;8.46;100
75089;BME280;63673;49.928;8.150;2022-09-20T01:41:34;996.33;;;8.44;100
75089;BME280;63673;49.928;8.150;2022-09-20T01:42:35;996.32;;;8.42;100
75089;BME280;63673;49.928;8.150;2022-09-20T01:43:38;996.36;;;8.4;100
75089;BME280;63673;49.928;8.150;2022-09-20T01:44:39;996.32;;;8.39;100
75089;BME280;63673;49.928;8.150;2022-09-20T01:45:40;996.31;;;8.38;100
75089;BME280;63673;49.928;8.150;2022-09-20T01:46:41;996.31;;;8.36;100
75089;BME280;63673;49.928;8.150;2022-09-20T01:47:44;996.37;;;8.36;100
75089;BME280;63673;49.928;8.150;2022-09-20T01:48:45;996.33;;;8.34;100
75089;BME280;63673;49.928;8.150;2022-09-20T01:49:49;996.37;;;8.33;100
75089;BME280;63673;49.928;8.150;2022-09-20T01:50:52;996.37;;;8.32;100
75089;BME280;63673;49.928;8.150;2022-09-20T01:52:01;996.4;;;8.31;100
75089;BME280;63673;49.928;8.150;2022-09-20T01:54:12;996.36;;;8.29;100
75089;BME280;63673;49.928;8.150;2022-09-20T01:55:01;996.33;;;8.29;100
75089;BME280;63673;49.928;8.150;2022-09-20T01:56:08;996.34;;;8.28;100
75089;BME280;63673;49.928;8.150;2022-09-20T01:57:15;996.34;;;8.28;100
75089;BME280;63673;49.928;8.150;2022-09-20T01:58:05;996.34;;;8.27;100
75089;BME280;63673;49.928;8.150;2022-09-20T01:59:07;996.38;;;8.27;100
75089;BME280;63673;49.928;8.150;2022-09-20T02:00:05;996.36;;;8.27;100
75089;BME280;63673;49.928;8.150;2022-09-20T02:01:13;996.33;;;8.26;100
75089;BME280;63673;49.928;8.150;2022-09-20T02:02:08;996.35;;;8.25;100
75089;BME280;63673;49.928;8.150;2022-09-20T02:03:15;996.35;;;8.25;100
75089;BME280;63673;49.928;8.150;2022-09-20T02:04:17;996.35;;;8.26;100
75089;BME280;63673;49.928;8.150;2022-09-20T02:05:17;996.39;;;8.25;100
75089;BME280;63673;49.928;8.150;2022-09-20T02:06:18;996.41;;;8.24;100
75089;BME280;63673;49.928;8.150;2022-09-20T02:07:19;996.4;;;8.23;100
75089;BME280;63673;49.928;8.150;2022-09-20T02:08:21;996.42;;;8.21;100
75089;BME280;63673;49.928;8.150;2022-09-20T02:09:24;996.39;;;8.2;100
75089;BME280;63673;49.928;8.150;2022-09-20T02:10:27;996.33;;;8.18;100
75089;BME280;63673;49.928;8.150;2022-09-20T02:11:24;996.34;;;8.16;100
75089;BME280;63673;49.928;8.150;2022-09-20T02:12:29;996.33;;;8.17;100
75089;BME280;63673;49.928;8.150;2022-09-20T02:13:28;996.32;;;8.16;100
75089;BME280;63673;49.928;8.150;2022-09-20T02:14:30;996.27;;;8.16;100
75089;BME280;63673;49.928;8.150;2022-09-20T02:15:33;996.26;;;8.16;100
75089;BME280;63673;49.928;8.150;2022-09-20T02:16:35;996.25;;;8.15;100
75089;BME280;63673;49.928;8.150;2022-09-20T02:17:37;996.31;;;8.15;100
75089;BME280;63673;49.928;8.150;2022-09-20T02:18:37;996.31;;;8.14;100
75089;BME280;63673;49.928;8.150;2022-09-20T02:19:40;996.28;;;8.13;100
75089;BME280;63673;49.928;8.150;2022-09-20T02:20:40;996.28;;;8.13;100
75089;BME280;63673;49.928;8.150;2022-09-20T02:21:41;996.32;;;8.13;100
75089;BME280;63673;49.928;8.150;2022-09-20T02:22:46;996.25;;;8.13;100
75089;BME280;63673;49.928;8.150;2022-09-20T02:23:45;996.28;;;8.12;100
75089;BME280;63673;49.928;8.150;2022-09-20T02:24:48;996.25;;;8.11;100
75089;BME280;63673;49.928;8.150;2022-09-20T02:25:52;996.25;;;8.1;100
75089;BME280;63673;49.928;8.150;2022-09-20T02:26:51;996.26;;;8.09;100
75089;BME280;63673;49.928;8.150;2022-09-20T02:27:54;996.25;;;8.08;100
75089;BME280;63673;49.928;8.150;2022-09-20T02:28:54;996.21;;;8.07;100
75089;BME280;63673;49.928;8.150;2022-09-20T02:29:58;996.25;;;8.05;100
75089;BME280;63673;49.928;8.150;2022-09-20T02:30:59;996.2;;;8.03;100
75089;BME280;63673;49.928;8.150;2022-09-20T02:32:10;996.26;;;8.02;100
75089;BME280;63673;49.928;8.150;2022-09-20T02:33:05;996.25;;;7.99;100
75089;BME280;63673;49.928;8.150;2022-09-20T02:34:07;996.24;;;7.98;100
75089;BME280;63673;49.928;8.150;2022-09-20T02:35:11;996.29;;;7.96;100
75089;BME280;63673;49.928;8.150;2022-09-20T02:36:13;996.29;;;7.94;100
75089;BME280;63673;49.928;8.150;2022-09-20T02:37:13;996.3;;;7.92;100
75089;BME280;63673;49.928;8.150;2022-09-20T02:38:10;996.28;;;7.92;100
75089;BME280;63673;49.928;8.150;2022-09-20T02:39:10;996.26;;;7.92;100
75089;BME280;63673;49.928;8.150;2022-09-20T02:40:16;996.24;;;7.91;100
75089;BME280;63673;49.928;8.150;2022-09-20T02:41:25;996.24;;;7.91;100
75089;BME280;63673;49.928;8.150;2022-09-20T02:42:16;996.27;;;7.89;100
75089;BME280;63673;49.928;8.150;2022-09-20T02:43:20;996.28;;;7.88;100
75089;BME280;63673;49.928;8.150;2022-09-20T02:44:22;996.28;;;7.88;100
75089;BME280;63673;49.928;8.150;2022-09-20T02:45:21;996.28;;;7.88;100
75089;BME280;63673;49.928;8.150;2022-09-20T02:46:23;996.23;;;7.86;100
75089;BME280;63673;49.928;8.150;2022-09-20T02:47:26;996.31;;;7.86;100
75089;BME280;63673;49.928;8.150;2022-09-20T02:48:26;996.27;;;7.86;100
75089;BME280;63673;49.928;8.150;2022-09-20T02:49:28;996.33;;;7.85;100
75089;BME280;63673;49.928;8.150;2022-09-20T02:50:30;996.31;;;7.85;100
75089;BME280;63673;49.928;8.150;2022-09-20T02:51:33;996.34;;;7.83;100
75089;BME280;63673;49.928;8.150;2022-09-20T02:52:34;996.29;;;7.82;100
75089;BME280;63673;49.928;8.150;2022-09-20T02:53:36;996.32;;;7.81;100
75089;BME280;63673;49.928;8.150;2022-09-20T02:54:36;996.29;;;7.79;100
75089;BME280;63673;49.928;8.150;2022-09-20T02:55:39;996.35;;;7.79;100
75089;BME280;63673;49.928;8.150;2022-09-20T02:56:42;996.32;;;7.78;100
75089;BME280;63673;49.928;8.150;2022-09-20T02:57:43;996.42;;;7.76;100
75089;BME280;63673;49.928;8.150;2022-09-20T02:58:45;996.42;;;7.75;100
75089;BME280;63673;49.928;8.150;2022-09-20T02:59:45;996.42;;;7.73;100
75089;BME280;63673;49.928;8.150;2022-09-20T03:00:47;996.44;;;7.71;100
75089;BME280;63673;49.928;8.150;2022-09-20T03:01:50;996.43;;;7.7;100
75089;BME280;63673;49.928;8.150;2022-09-20T03:02:56;996.44;;;7.67;100
75089;BME280;63673;49.928;8.150;2022-09-20T03:03:54;996.39;;;7.65;100
75089;BME280;63673;49.928;8.150;2022-09-20T03:04:59;996.44;;;7.63;100
75089;BME280;63673;49.928;8.150;2022-09-20T03:05:57;996.36;;;7.62;100
75089;BME280;63673;49.928;8.150;2022-09-20T03:06:58;996.38;;;7.61;100
75089;BME280;63673;49.928;8.150;2022-09-20T03:08:03;996.42;;;7.59;100
75089;BME280;63673;49.928;8.150;2022-09-20T03:09:02;996.45;;;7.58;100
75089;BME280;63673;49.928;8.150;2022-09-20T03:10:05;996.41;;;7.57;100
75089;BME280;63673;49.928;8.150;2022-09-20T03:11:07;996.38;;;7.58;100
75089;BME280;63673;49.928;8.150;2022-09-20T03:12:09;996.39;;;7.56;100
75089;BME280;63673;49.928;8.150;2022-09-20T03:13:12;996.4;;;7.54;100
75089;BME280;63673;49.928;8.150;2022-09-20T03:14:12;996.44;;;7.53;100
75089;BME280;63673;49.928;8.150;2022-09-20T03:15:14;996.34;;;7.51;100
75089;BME280;63673;49.928;8.150;2022-09-20T03:16:14;996.44;;;7.49;100
75089;BME280;63673;49.928;8.150;2022-09-20T03:17:17;996.41;;;7.47;100
75089;BME280;63673;49.928;8.150;2022-09-20T03:18:16;996.42;;;7.47;100
75089;BME280;63673;49.928;8.150;2022-09-20T03:19:20;996.43;;;7.46;100
75089;BME280;63673;49.928;8.150;2022-09-20T03:20:22;996.44;;;7.44;100
75089;BME280;63673;49.928;8.150;2022-09-20T03:21:24;996.4;;;7.44;100
75089;BME280;63673;49.928;8.150;2022-09-20T03:22:25;996.37;;;7.46;100
75089;BME280;63673;49.928;8.150;2022-09-20T03:23:31;996.34;;;7.48;100
75089;BME280;63673;49.928;8.150;2022-09-20T03:24:28;996.39;;;7.5;100
75089;BME280;63673;49.928;8.150;2022-09-20T03:25:32;996.37;;;7.53;100
75089;BME280;63673;49.928;8.150;2022-09-20T03:26:32;996.37;;;7.56;100
75089;BME280;63673;49.928;8.150;2022-09-20T03:27:34;996.38;;;7.59;100
75089;BME280;63673;49.928;8.150;2022-09-20T03:28:35;996.41;;;7.61;100
75089;BME280;63673;49.928;8.150;2022-09-20T03:29:39;996.43;;;7.63;100
75089;BME280;63673;49.928;8.150;2022-09-20T03:30:41;996.46;;;7.65;100
75089;BME280;63673;49.928;8.150;2022-09-20T03:31:45;996.47;;;7.66;100
75089;BME280;63673;49.928;8.150;2022-09-20T03:32:43;996.46;;;7.68;100
75089;BME280;63673;49.928;8.150;2022-09-20T03:33:45;996.51;;;7.69;100
75089;BME280;63673;49.928;8.150;2022-09-20T03:34:46;996.5;;;7.7;100
75089;BME280;63673;49.928;8.150;2022-09-20T03:35:49;996.51;;;7.7;100
75089;BME280;63673;49.928;8.150;2022-09-20T03:36:51;996.51;;;7.71;100
75089;BME280;63673;49.928;8.150;2022-09-20T03:37:53;996.53;;;7.71;100
75089;BME280;63673;49.928;8.150;2022-09-20T03:38:56;996.58;;;7.71;100
75089;BME280;63673;49.928;8.150;2022-09-20T03:39:59;996.6;;;7.71;100
75089;BME280;63673;49.928;8.150;2022-09-20T03:40:58;996.57;;;7.71;100
75089;BME280;63673;49.928;8.150;2022-09-20T03:41:58;996.56;;;7.71;100
75089;BME280;63673;49.928;8.150;2022-09-20T03:42:59;996.55;;;7.7;100
75089;BME280;63673;49.928;8.150;2022-09-20T03:44:04;996.57;;;7.7;100
75089;BME280;63673;49.928;8.150;2022-09-20T03:45:35;996.49;;;7.69;100
75089;BME280;63673;49.928;8.150;2022-09-20T03:46:06;996.54;;;7.67;100
75089;BME280;63673;49.928;8.150;2022-09-20T03:47:07;996.54;;;7.67;100
75089;BME280;63673;49.928;8.150;2022-09-20T03:48:14;996.57;;;7.66;100
75089;BME280;63673;49.928;8.150;2022-09-20T03:49:45;996.55;;;7.65;100
75089;BME280;63673;49.928;8.150;2022-09-20T03:50:30;996.51;;;7.64;100
75089;BME280;63673;49.928;8.150;2022-09-20T03:51:12;996.54;;;7.65;100
75089;BME280;63673;49.928;8.150;2022-09-20T03:52:16;996.58;;;7.68;100
75089;BME280;63673;49.928;8.150;2022-09-20T03:53:20;996.5;;;7.7;100
75089;BME280;63673;49.928;8.150;2022-09-20T03:54:35;996.5;;;7.72;100
75089;BME280;63673;49.928;8.150;2022-09-20T03:55:22;996.55;;;7.74;100
75089;BME280;63673;49.928;8.150;2022-09-20T03:56:23;996.54;;;7.75;100
75089;BME280;63673;49.928;8.150;2022-09-20T03:57:40;996.53;;;7.76;100
75089;BME280;63673;49.928;8.150;2022-09-20T03:58:28;996.57;;;7.78;100
75089;BME280;63673;49.928;8.150;2022-09-20T03:59:29;996.59;;;7.79;100
75089;BME280;63673;49.928;8.150;2022-09-20T04:00:30;996.57;;;7.78;100
75089;BME280;63673;49.928;8.150;2022-09-20T04:01:33;996.58;;;7.8;100
75089;BME280;63673;49.928;8.150;2022-09-20T04:02:35;996.55;;;7.81;100
75089;BME280;63673;49.928;8.150;2022-09-20T04:03:34;996.54;;;7.83;100
75089;BME280;63673;49.928;8.150;2022-09-20T04:04:35;996.56;;;7.84;100
75089;BME280;63673;49.928;8.150;2022-09-20T04:05:38;996.53;;;7.87;100
75089;BME280;63673;49.928;8.150;2022-09-20T04:06:41;996.54;;;7.89;100
75089;BME280;63673;49.928;8.150;2022-09-20T04:07:41;996.58;;;7.92;100
75089;BME280;63673;49.928;8.150;2022-09-20T04:08:46;996.6;;;7.93;100
75089;BME280;63673;49.928;8.150;2022-09-20T04:09:45;996.56;;;7.95;100
75089;BME280;63673;49.928;8.150;2022-09-20T04:10:45;996.57;;;7.97;100
75089;BME280;63673;49.928;8.150;2022-09-20T04:11:47;996.58;;;7.99;100
75089;BME280;63673;49.928;8.150;2022-09-20T04:12:49;996.59;;;8;100
75089;BME280;63673;49.928;8.150;2022-09-20T04:13:51;996.53;;;8.01;100
75089;BME280;63673;49.928;8.150;2022-09-20T04:14:52;996.58;;;8.02;100
75089;BME280;63673;49.928;8.150;2022-09-20T04:15:57;996.59;;;8.03;100
75089;BME280;63673;49.928;8.150;2022-09-20T04:16:57;996.5;;;8.04;100
75089;BME280;63673;49.928;8.150;2022-09-20T04:17:57;996.64;;;8.05;100
75089;BME280;63673;49.928;8.150;2022-09-20T04:18:59;996.59;;;8.06;100
75089;BME280;63673;49.928;8.150;2022-09-20T04:20:00;996.63;;;8.06;100
75089;BME280;63673;49.928;8.150;2022-09-20T04:21:03;996.62;;;8.07;100
75089;BME280;63673;49.928;8.150;2022-09-20T04:22:03;996.56;;;8.08;100
75089;BME280;63673;49.928;8.150;2022-09-20T04:23:09;996.5;;;8.09;100
75089;BME280;63673;49.928;8.150;2022-09-20T04:24:08;996.58;;;8.1;100
75089;BME280;63673;49.928;8.150;2022-09-20T04:25:11;996.56;;;8.11;100
75089;BME280;63673;49.928;8.150;2022-09-20T04:26:10;996.59;;;8.12;100
75089;BME280;63673;49.928;8.150;2022-09-20T04:27:13;996.55;;;8.13;100
75089;BME280;63673;49.928;8.150;2022-09-20T04:28:14;996.5;;;8.14;100
75089;BME280;63673;49.928;8.150;2022-09-20T04:29:28;996.5;;;8.15;100
75089;BME280;63673;49.928;8.150;2022-09-20T04:30:18;996.57;;;8.16;100
75089;BME280;63673;49.928;8.150;2022-09-20T04:31:23;996.56;;;8.16;100
75089;BME280;63673;49.928;8.150;2022-09-20T04:32:23;996.63;;;8.17;100
75089;BME280;63673;49.928;8.150;2022-09-20T04:33:24;996.59;;;8.18;100
75089;BME280;63673;49.928;8.150;2022-09-20T04:34:24;996.64;;;8.18;100
75089;BME280;63673;49.928;8.150;2022-09-20T04:35:32;996.66;;;8.19;100
75089;BME280;63673;49.928;8.150;2022-09-20T04:36:33;996.66;;;8.19;100
75089;BME280;63673;49.928;8.150;2022-09-20T04:37:30;996.64;;;8.19;100
75089;BME280;63673;49.928;8.150;2022-09-20T04:38:31;996.57;;;8.19;100
75089;BME280;63673;49.928;8.150;2022-09-20T04:39:35;996.59;;;8.2;100
75089;BME280;63673;49.928;8.150;2022-09-20T04:40:36;996.64;;;8.19;100
75089;BME280;63673;49.928;8.150;2022-09-20T04:41:57;996.62;;;8.18;100
75089;BME280;63673;49.928;8.150;2022-09-20T04:43:43;996.64;;;8.17;100
75089;BME280;63673;49.928;8.150;2022-09-20T04:43:49;996.68;;;8.18;100
75089;BME280;63673;49.928;8.150;2022-09-20T04:44:46;996.59;;;8.16;100
75089;BME280;63673;49.928;8.150;2022-09-20T04:45:51;996.58;;;8.17;100
75089;BME280;63673;49.928;8.150;2022-09-20T04:46:52;996.59;;;8.16;100
75089;BME280;63673;49.928;8.150;2022-09-20T04:49:01;996.61;;;8.16;100
75089;BME280;63673;49.928;8.150;2022-09-20T04:49:57;996.63;;;8.16;100
75089;BME280;63673;49.928;8.150;2022-09-20T04:50:59;996.61;;;8.17;100
75089;BME280;63673;49.928;8.150;2022-09-20T04:52:05;996.65;;;8.17;100
75089;BME280;63673;49.928;8.150;2022-09-20T04:53:01;996.66;;;8.19;100
75089;BME280;63673;49.928;8.150;2022-09-20T04:55:05;996.72;;;8.19;100
75089;BME280;63673;49.928;8.150;2022-09-20T04:55:16;996.67;;;8.19;100
75089;BME280;63673;49.928;8.150;2022-09-20T04:56:01;996.7;;;8.2;100
75089;BME280;63673;49.928;8.150;2022-09-20T04:57:08;996.69;;;8.21;100
75089;BME280;63673;49.928;8.150;2022-09-20T04:58:14;996.7;;;8.21;100
75089;BME280;63673;49.928;8.150;2022-09-20T04:59:06;996.71;;;8.22;100
75089;BME280;63673;49.928;8.150;2022-09-20T05:00:08;996.75;;;8.23;100
75089;BME280;63673;49.928;8.150;2022-09-20T05:01:41;996.77;;;8.24;100
75089;BME280;63673;49.928;8.150;2022-09-20T05:02:19;996.73;;;8.25;100
75089;BME280;63673;49.928;8.150;2022-09-20T05:03:19;996.75;;;8.26;100
75089;BME280;63673;49.928;8.150;2022-09-20T05:04:36;996.78;;;8.28;100
75089;BME280;63673;49.928;8.150;2022-09-20T05:05:21;996.83;;;8.3;100
75089;BME280;63673;49.928;8.150;2022-09-20T05:06:23;996.78;;;8.3;100
75089;BME280;63673;49.928;8.150;2022-09-20T05:07:25;996.81;;;8.31;100
75089;BME280;63673;49.928;8.150;2022-09-20T05:08:57;996.81;;;8.32;100
75089;BME280;63673;49.928;8.150;2022-09-20T05:09:27;996.75;;;8.33;100
75089;BME280;63673;49.928;8.150;2022-09-20T05:10:46;996.79;;;8.35;100
75089;BME280;63673;49.928;8.150;2022-09-20T05:11:46;996.8;;;8.36;100
75089;BME280;63673;49.928;8.150;2022-09-20T05:12:47;996.79;;;8.37;100
75089;BME280;63673;49.928;8.150;2022-09-20T05:13:32;996.77;;;8.38;100
75089;BME280;63673;49.928;8.150;2022-09-20T05:14:36;996.81;;;8.4;100
75089;BME280;63673;49.928;8.150;2022-09-20T05:15:34;996.8;;;8.4;100
75089;BME280;63673;49.928;8.150;2022-09-20T05:16:39;996.79;;;8.41;100
75089;BME280;63673;49.928;8.150;2022-09-20T05:17:41;996.78;;;8.43;100
75089;BME280;63673;49.928;8.150;2022-09-20T05:19:01;996.81;;;8.44;100
75089;BME280;63673;49.928;8.150;2022-09-20T05:19:45;996.8;;;8.45;100
75089;BME280;63673;49.928;8.150;2022-09-20T05:20:44;996.79;;;8.46;100
75089;BME280;63673;49.928;8.150;2022-09-20T05:21:52;996.8;;;8.47;100
75089;BME280;63673;49.928;8.150;2022-09-20T05:22:52;996.84;;;8.48;100
75089;BME280;63673;49.928;8.150;2022-09-20T05:23:51;996.85;;;8.49;100
75089;BME280;63673;49.928;8.150;2022-09-20T05:24:54;996.83;;;8.5;100
75089;BME280;63673;49.928;8.150;2022-09-20T05:25:55;996.84;;;8.51;100
75089;BME280;63673;49.928;8.150;2022-09-20T05:26:57;996.87;;;8.53;100
75089;BME280;63673;49.928;8.150;2022-09-20T05:27:55;996.87;;;8.55;100
75089;BME280;63673;49.928;8.150;2022-09-20T05:28:58;996.84;;;8.57;100
75089;BME280;63673;49.928;8.150;2022-09-20T05:30:00;996.86;;;8.58;100
75089;BME280;63673;49.928;8.150;2022-09-20T05:31:01;996.86;;;8.59;100
75089;BME280;63673;49.928;8.150;2022-09-20T05:32:02;996.85;;;8.61;100
75089;BME280;63673;49.928;8.150;2022-09-20T05:33:06;996.79;;;8.63;100
75089;BME280;63673;49.928;8.150;2022-09-20T05:34:07;996.88;;;8.64;100
75089;BME280;63673;49.928;8.150;2022-09-20T05:35:11;996.88;;;8.66;100
75089;BME280;63673;49.928;8.150;2022-09-20T05:36:10;996.92;;;8.67;100
75089;BME280;63673;49.928;8.150;2022-09-20T05:37:13;996.92;;;8.69;100
75089;BME280;63673;49.928;8.150;2022-09-20T05:38:15;996.93;;;8.7;100
75089;BME280;63673;49.928;8.150;2022-09-20T05:39:17;996.98;;;8.71;100
75089;BME280;63673;49.928;8.150;2022-09-20T05:40:21;996.98;;;8.73;100
75089;BME280;63673;49.928;8.150;2022-09-20T05:41:21;996.96;;;8.74;100
75089;BME280;63673;49.928;8.150;2022-09-20T05:42:19;996.99;;;8.76;100
75089;BME280;63673;49.928;8.150;2022-09-20T05:43:21;996.98;;;8.77;100
75089;BME280;63673;49.928;8.150;2022-09-20T05:44:24;997;;;8.78;100
75089;BME280;63673;49.928;8.150;2022-09-20T05:45:32;997.01;;;8.8;100
75089;BME280;63673;49.928;8.150;2022-09-20T05:46:31;996.98;;;8.81;100
75089;BME280;63673;49.928;8.150;2022-09-20T05:47:31;996.93;;;8.82;100
75089;BME280;63673;49.928;8.150;2022-09-20T05:48:33;997.05;;;8.85;100
75089;BME280;63673;49.928;8.150;2022-09-20T05:49:35;997.1;;;8.87;100
75089;BME280;63673;49.928;8.150;2022-09-20T05:50:35;997.13;;;8.88;100
75089;BME280;63673;49.928;8.150;2022-09-20T05:51:39;997.15;;;8.89;100
75089;BME280;63673;49.928;8.150;2022-09-20T05:52:40;997.18;;;8.92;100
75089;BME280;63673;49.928;8.150;2022-09-20T05:53:49;997.19;;;8.93;100